Time;durP1;ratioP1;P1;durP2;ratioP2;P2;SDS_P1;SDS_P2;PMS_P1;PMS_P2;Temp;Humidity;BMP_temperature;BMP_pressure;BME280_temperature;BME280_humidity;BME280_pressure;Samples;Min_cycle;Max_cycle;Signal;HPM_P1;HPM_P2
2023/07/08 00:00:15;;;;;;;0.40;0.35;;;;;;;16.20;68.83;101801.25;4989477;28;20534;-72
2023/07/08 00:02:42;;;;;;;1.98;0.20;;;;;;;16.26;68.25;101811.66;4985495;28;20054;-71
2023/07/08 00:05:12;;;;;;;1.60;0.50;;;;;;;16.24;68.55;101813.44;4986966;28;20419;-71
2023/07/08 00:07:39;;;;;;;0.30;0.22;;;;;;;16.23;68.42;101817.00;4986051;28;20046;-72
2023/07/08 00:10:15;;;;;;;0.52;0.32;;;;;;;16.20;68.46;101814.44;4988995;28;20121;-71
2023/07/08 00:12:42;;;;;;;1.13;0.40;;;;;;;16.12;68.64;101803.22;4984865;28;20056;-70
2023/07/08 00:15:10;;;;;;;0.20;0.20;;;;;;;16.16;68.50;101810.13;4989935;28;20113;-70
2023/07/08 00:17:37;;;;;;;3.03;0.30;;;;;;;16.13;68.84;101821.63;4987892;28;20411;-72
2023/07/08 00:20:13;;;;;;;1.52;0.40;;;;;;;16.11;68.71;101814.69;4986818;28;20137;-71
2023/07/08 00:22:41;;;;;;;1.50;0.35;;;;;;;16.09;68.76;101813.84;4982899;28;20140;-72
2023/07/08 00:25:08;;;;;;;0.95;0.30;;;;;;;16.06;68.91;101819.19;4984974;28;20069;-72
2023/07/08 00:27:35;;;;;;;1.95;0.30;;;;;;;16.04;68.75;101821.00;4986128;28;20050;-71
2023/07/08 00:30:02;;;;;;;2.38;0.30;;;;;;;16.02;68.98;101818.38;4984800;28;20146;-72
2023/07/08 00:32:29;;;;;;;3.28;0.32;;;;;;;15.99;69.01;101817.59;4989779;28;20046;-72
2023/07/08 00:34:56;;;;;;;1.45;0.50;;;;;;;15.98;69.04;101819.38;4986505;28;20050;-72
2023/07/08 00:37:30;;;;;;;4.68;0.47;;;;;;;15.96;69.10;101823.81;4988456;28;20053;-72
2023/07/08 00:39:57;;;;;;;1.90;0.30;;;;;;;15.95;69.04;101822.94;4985802;28;20050;-72
2023/07/08 00:42:25;;;;;;;2.05;0.30;;;;;;;15.94;69.20;101823.84;4989139;28;20056;-72
2023/07/08 00:44:52;;;;;;;0.75;0.40;;;;;;;15.92;69.30;101822.16;4989063;28;20667;-72
2023/07/08 00:47:20;;;;;;;2.75;0.40;;;;;;;15.86;69.17;101814.41;4984062;28;20038;-72
2023/07/08 00:49:53;;;;;;;1.42;0.40;;;;;;;15.88;69.11;101813.47;4987108;28;20042;-72
2023/07/08 00:52:24;;;;;;;2.00;0.55;;;;;;;15.86;69.25;101817.91;4985201;28;20042;-72
2023/07/08 00:54:54;;;;;;;1.42;0.38;;;;;;;15.85;69.31;101820.56;4984130;28;20840;-72
2023/07/08 00:57:24;;;;;;;1.38;0.65;;;;;;;15.83;69.46;101817.97;4988315;28;20054;-72
2023/07/08 00:59:57;;;;;;;3.30;0.50;;;;;;;15.81;69.37;101816.28;4982885;28;20061;-72
2023/07/08 01:02:27;;;;;;;1.25;0.40;;;;;;;15.79;69.36;101815.44;5022299;28;20565;-72
2023/07/08 01:05:02;;;;;;;3.08;0.43;;;;;;;15.77;69.44;101815.50;5024383;28;20041;-72
2023/07/08 01:07:33;;;;;;;;;;;;;;;15.74;68.83;101812.94;5024718;28;20053;-72
2023/07/08 01:10:04;;;;;;;5.90;0.40;;;;;;;15.72;69.36;101820.00;5022786;28;20447;-71
2023/07/08 01:12:35;;;;;;;1.15;0.60;;;;;;;15.68;69.50;101811.31;5025176;28;20064;-72
2023/07/08 01:15:04;;;;;;;2.25;0.50;;;;;;;15.58;69.35;101796.56;5028163;28;20051;-74
2023/07/08 01:17:33;;;;;;;0.50;0.32;;;;;;;15.67;69.72;101820.06;5023409;28;20517;-71
2023/07/08 01:20:00;;;;;;;1.15;0.40;;;;;;;15.65;69.67;101808.72;5024970;28;20049;-72
2023/07/08 01:22:32;;;;;;;1.80;0.50;;;;;;;15.64;69.93;101816.63;5022503;28;20128;-72
2023/07/08 01:25:03;;;;;;;2.58;0.40;;;;;;;15.63;69.89;101820.19;5029353;28;20084;-71
2023/07/08 01:27:32;;;;;;;1.55;0.50;;;;;;;15.62;70.03;101815.78;5025730;28;20132;-72
2023/07/08 01:29:59;;;;;;;0.80;0.40;;;;;;;15.59;70.13;101808.81;5025933;28;20056;-72
2023/07/08 01:32:27;;;;;;;4.68;0.32;;;;;;;15.55;70.21;101807.19;5027232;28;20511;-71
2023/07/08 01:35:00;;;;;;;2.47;0.40;;;;;;;15.60;70.04;101817.63;5025212;28;20042;-71
2023/07/08 01:37:36;;;;;;;1.60;0.45;;;;;;;15.58;70.13;101812.38;5024549;28;20206;-71
2023/07/08 01:40:17;;;;;;;;;;;;;;;15.58;69.59;101812.38;5026128;28;20071;-71
2023/07/08 01:42:44;;;;;;;1.65;0.35;;;;;;;15.55;69.72;101808.94;5025237;28;19925;-71
2023/07/08 01:45:13;;;;;;;0.82;0.38;;;;;;;15.49;70.18;101810.81;5025925;28;20490;-71
2023/07/08 01:47:42;;;;;;;2.85;0.45;;;;;;;15.50;70.22;101809.03;5022116;28;20037;-72
2023/07/08 01:50:10;;;;;;;1.52;0.68;;;;;;;15.50;69.96;101820.44;5022523;28;20041;-72
2023/07/08 01:52:39;;;;;;;4.70;0.40;;;;;;;15.49;70.12;101818.72;5016095;28;20050;-72
2023/07/08 01:55:07;;;;;;;4.55;0.40;;;;;;;15.50;70.25;101823.06;5024664;28;20096;-72
2023/07/08 01:57:34;;;;;;;0.70;0.40;;;;;;;15.50;70.27;101827.47;5024463;28;20053;-71
2023/07/08 02:00:01;;;;;;;3.20;0.40;;;;;;;15.48;70.14;101830.16;5021406;28;20041;-71
2023/07/08 02:02:28;;;;;;;0.88;0.40;;;;;;;15.48;70.04;101826.63;5025577;28;20128;-72
2023/07/08 02:04:55;;;;;;;1.27;0.35;;;;;;;15.47;70.25;101830.19;5026052;28;20052;-71
2023/07/08 02:07:22;;;;;;;1.00;0.38;;;;;;;15.45;70.53;101829.34;5024740;28;20419;-72
2023/07/08 02:09:50;;;;;;;3.47;0.40;;;;;;;15.44;70.50;101828.47;5026952;28;20045;-72
2023/07/08 02:12:17;;;;;;;2.55;0.47;;;;;;;15.43;70.31;101837.28;5025213;28;20168;-72
2023/07/08 02:14:44;;;;;;;1.40;0.50;;;;;;;15.42;70.35;101827.63;5027207;28;20053;-72
2023/07/08 02:17:11;;;;;;;2.05;0.50;;;;;;;15.41;70.27;101832.94;5024318;28;20053;-71
2023/07/08 02:19:37;;;;;;;0.40;0.40;;;;;;;15.39;70.63;101832.97;5022475;28;20064;-72
2023/07/08 02:22:05;;;;;;;2.70;0.45;;;;;;;15.40;70.49;101839.13;5022589;28;20048;-72
2023/07/08 02:24:32;;;;;;;1.20;0.40;;;;;;;15.39;70.39;101845.28;5023908;28;20686;-71
2023/07/08 02:27:00;;;;;;;1.65;0.50;;;;;;;15.39;70.58;101842.63;5026251;28;20053;-72
2023/07/08 02:29:27;;;;;;;0.60;0.40;;;;;;;15.36;70.61;101840.06;5025824;28;20053;-72
2023/07/08 02:31:54;;;;;;;4.25;0.50;;;;;;;15.35;70.55;101847.09;5024331;28;20058;-72
2023/07/08 02:34:21;;;;;;;0.47;0.30;;;;;;;15.36;70.81;101837.44;5026679;28;20041;-72
2023/07/08 02:36:48;;;;;;;7.53;0.57;;;;;;;15.35;70.78;101851.50;5021495;28;20051;-71
2023/07/08 02:39:15;;;;;;;1.42;0.70;;;;;;;15.31;70.88;101845.41;5022270;28;20132;-72
2023/07/08 02:41:42;;;;;;;3.03;0.80;;;;;;;15.33;70.93;101854.16;5023865;28;20497;-71
2023/07/08 02:44:10;;;;;;;8.85;1.77;;;;;;;15.31;71.06;101850.69;5021057;28;20047;-72
2023/07/08 02:46:37;;;;;;;1.83;0.43;;;;;;;15.32;71.04;101862.97;5020587;28;20038;-71
2023/07/08 02:49:05;;;;;;;2.45;0.50;;;;;;;15.32;71.18;101865.59;5024633;28;20045;-71
2023/07/08 02:51:32;;;;;;;0.55;0.47;;;;;;;15.33;71.18;101866.47;5019817;28;20576;-71
2023/07/08 02:53:59;;;;;;;3.25;0.55;;;;;;;15.33;71.19;101869.09;5027109;28;20048;-78
2023/07/08 02:56:27;;;;;;;4.60;0.70;;;;;;;15.27;71.23;101854.28;5026177;28;20060;-77
2023/07/08 02:58:54;;;;;;;1.58;0.50;;;;;;;15.32;71.24;101862.13;5028594;28;20053;-76
2023/07/08 03:01:23;;;;;;;1.83;0.85;;;;;;;15.30;71.57;101854.22;5024291;28;20481;-76
2023/07/08 03:03:50;;;;;;;1.42;0.80;;;;;;;15.30;71.50;101863.00;5025125;28;20042;-77
2023/07/08 03:06:17;;;;;;;1.35;0.60;;;;;;;15.28;71.68;101850.75;5027683;28;20045;-76
2023/07/08 03:08:44;;;;;;;1.77;0.60;;;;;;;15.31;71.97;101861.22;5024334;28;20057;-76
2023/07/08 03:11:11;;;;;;;2.67;1.00;;;;;;;15.29;72.12;101855.13;5021614;28;20478;-77
2023/07/08 03:13:38;;;;;;;4.72;0.88;;;;;;;15.23;72.07;101848.25;5026730;28;20409;-76
2023/07/08 03:16:12;;;;;;;2.03;0.57;;;;;;;15.29;72.13;101860.41;5026136;28;20053;-76
2023/07/08 03:18:45;;;;;;;0.80;0.60;;;;;;;15.32;72.11;101862.97;5025657;28;20050;-77
2023/07/08 03:21:13;;;;;;;0.85;0.47;;;;;;;15.34;72.18;101866.44;5027530;28;20045;-78
2023/07/08 03:23:40;;;;;;;1.77;0.57;;;;;;;15.35;72.43;101862.91;5025484;28;20045;-77
2023/07/08 03:26:07;;;;;;;3.45;0.93;;;;;;;15.36;72.70;101866.41;5026414;28;20472;-78
2023/07/08 03:28:34;;;;;;;1.77;0.40;;;;;;;15.29;72.47;101853.38;5025845;28;20042;-76
2023/07/08 03:31:01;;;;;;;0.85;0.60;;;;;;;15.38;72.66;101862.84;5021469;28;20045;-77
2023/07/08 03:33:29;;;;;;;2.35;0.70;;;;;;;15.40;72.96;101865.44;5026791;28;20049;-77
2023/07/08 03:35:57;;;;;;;1.25;0.50;;;;;;;15.40;73.13;101861.06;5030208;28;20053;-75
2023/07/08 03:38:24;;;;;;;1.67;0.70;;;;;;;15.44;73.05;101867.97;5031230;28;20056;-76
2023/07/08 03:40:51;;;;;;;1.55;0.77;;;;;;;15.47;73.62;101867.91;5026866;28;20120;-77
2023/07/08 03:43:18;;;;;;;0.70;0.70;;;;;;;15.50;73.57;101862.56;5028724;28;20045;-76
2023/07/08 03:45:45;;;;;;;2.33;0.60;;;;;;;15.52;73.73;101865.19;5029793;28;20041;-77
2023/07/08 03:48:13;;;;;;;1.23;0.63;;;;;;;15.56;73.60;101865.97;5029752;28;20053;-76
2023/07/08 03:50:40;;;;;;;4.18;0.90;;;;;;;15.61;74.05;101859.69;5024975;28;20046;-76
2023/07/08 03:53:10;;;;;;;1.73;1.00;;;;;;;15.63;74.12;101862.31;5028311;28;20091;-76
2023/07/08 03:55:36;;;;;;;4.07;0.90;;;;;;;15.65;74.03;101864.03;5025075;28;20041;-76
2023/07/08 03:58:03;;;;;;;2.08;0.98;;;;;;;15.72;74.42;101872.69;5028675;28;20053;-76
2023/07/08 04:00:30;;;;;;;4.25;1.02;;;;;;;15.80;74.34;101875.16;5026001;28;20164;-76
2023/07/08 04:02:57;;;;;;;0.75;0.75;;;;;;;15.84;74.04;101880.28;5029393;28;20049;-76
2023/07/08 04:05:25;;;;;;;1.33;0.65;;;;;;;15.85;73.93;101876.78;5027073;28;20053;-76
2023/07/08 04:07:51;;;;;;;3.67;0.60;;;;;;;15.95;73.86;101880.06;5028834;28;20055;-76
2023/07/08 04:10:20;;;;;;;3.40;0.65;;;;;;;16.00;73.77;101877.31;5025690;28;20064;-76
2023/07/08 04:12:47;;;;;;;2.28;0.70;;;;;;;16.05;73.67;101883.31;5029390;28;20045;-76
2023/07/08 04:15:16;;;;;;;3.00;1.00;;;;;;;16.09;73.95;101891.13;5028583;28;20517;-77
2023/07/08 04:17:45;;;;;;;0.93;0.60;;;;;;;16.16;73.52;101895.34;5026073;28;20060;-77
2023/07/08 04:20:15;;;;;;;3.03;0.93;;;;;;;16.23;73.60;101901.38;5030157;28;20049;-75
2023/07/08 04:22:42;;;;;;;4.40;0.70;;;;;;;16.27;73.53;101894.25;5029915;28;20049;-76
2023/07/08 04:25:10;;;;;;;1.60;0.95;;;;;;;16.35;73.70;101895.78;5025311;28;20048;-76
2023/07/08 04:27:39;;;;;;;1.08;0.80;;;;;;;16.41;73.35;101900.91;5028884;28;20413;-76
2023/07/08 04:30:08;;;;;;;4.80;1.10;;;;;;;16.50;73.70;101904.22;5026310;28;20045;-76
2023/07/08 04:32:37;;;;;;;1.25;0.88;;;;;;;16.59;73.88;101898.69;5027074;28;20833;-76
2023/07/08 04:35:05;;;;;;;4.68;1.13;;;;;;;16.64;73.81;101892.41;5030091;28;20057;-77
2023/07/08 04:37:32;;;;;;;0.98;0.90;;;;;;;16.74;73.62;101898.31;5029318;28;20045;-76
2023/07/08 04:39:59;;;;;;;1.33;0.77;;;;;;;16.82;73.42;101901.66;5023042;28;20953;-77
2023/07/08 04:42:28;;;;;;;3.40;0.60;;;;;;;16.94;73.33;101905.75;5026191;28;20045;-75
2023/07/08 04:44:56;;;;;;;2.63;0.68;;;;;;;17.03;73.11;101901.97;5028261;28;20417;-76
2023/07/08 04:47:23;;;;;;;1.98;0.60;;;;;;;17.13;73.25;101900.81;5026844;28;20044;-76
2023/07/08 04:49:50;;;;;;;1.17;0.70;;;;;;;17.22;72.81;101905.84;5026631;28;20053;-76
2023/07/08 04:52:17;;;;;;;0.82;0.80;;;;;;;17.31;72.35;101902.94;5024962;28;20422;-75
2023/07/08 04:54:44;;;;;;;2.15;0.90;;;;;;;17.42;72.05;101901.78;5029707;28;20045;-76
2023/07/08 04:57:11;;;;;;;2.92;0.70;;;;;;;17.54;71.99;101893.47;5028311;28;20038;-75
2023/07/08 04:59:38;;;;;;;0.70;0.70;;;;;;;17.68;71.62;101903.66;5026023;28;20049;-75
2023/07/08 05:02:06;;;;;;;0.70;0.45;;;;;;;17.77;70.95;101893.66;5027497;28;20063;-76
2023/07/08 05:04:34;;;;;;;0.80;0.75;;;;;;;17.86;70.79;101894.31;5028376;28;20050;-76
2023/07/08 05:07:01;;;;;;;2.00;0.82;;;;;;;17.99;70.38;101893.03;5024646;28;20113;-75
2023/07/08 05:09:29;;;;;;;1.45;0.70;;;;;;;17.98;70.37;101868.34;5031380;28;20055;-75
2023/07/08 05:11:56;;;;;;;2.45;0.65;;;;;;;18.20;69.73;101894.09;5028595;28;20057;-76
2023/07/08 05:14:22;;;;;;;4.68;0.60;;;;;;;18.33;69.71;101894.59;5027542;28;20041;-76
2023/07/08 05:16:49;;;;;;;1.60;0.98;;;;;;;18.43;69.36;101901.28;5026572;28;20466;-76
2023/07/08 05:19:18;;;;;;;2.20;1.27;;;;;;;18.51;69.29;101896.59;5026977;28;20045;-76
2023/07/08 05:21:45;;;;;;;1.05;0.95;;;;;;;18.63;68.97;101901.47;5027865;28;20132;-75
2023/07/08 05:24:12;;;;;;;0.90;0.70;;;;;;;18.73;68.76;101906.47;5027903;28;20778;-75
2023/07/08 05:26:39;;;;;;;4.63;0.85;;;;;;;18.83;68.43;101905.25;5028513;28;20498;-75
2023/07/08 05:29:06;;;;;;;1.00;0.82;;;;;;;18.92;67.55;101906.69;5027127;28;20079;-75
2023/07/08 05:31:34;;;;;;;2.72;0.90;;;;;;;19.04;67.56;101896.56;5025676;28;20049;-75
2023/07/08 05:34:01;;;;;;;1.98;1.02;;;;;;;19.13;67.59;101905.09;5029254;28;20041;-76
2023/07/08 05:36:29;;;;;;;2.00;0.90;;;;;;;19.22;66.58;101899.44;5028499;28;20051;-76
2023/07/08 05:38:56;;;;;;;1.58;0.80;;;;;;;19.33;66.08;101905.22;5028721;28;21737;-76
2023/07/08 05:41:23;;;;;;;3.60;1.13;;;;;;;19.44;66.25;101902.16;5023759;28;20041;-75
2023/07/08 05:43:50;;;;;;;3.17;1.13;;;;;;;19.50;65.99;101900.16;5024370;28;20045;-76
2023/07/08 05:46:17;;;;;;;3.03;1.30;;;;;;;19.60;65.58;101900.66;5024109;28;20067;-76
2023/07/08 05:48:44;;;;;;;2.22;1.30;;;;;;;19.68;65.47;101895.97;5027639;28;20136;-75
2023/07/08 05:51:11;;;;;;;2.35;0.82;;;;;;;19.73;64.67;101893.13;5024531;28;20506;-75
2023/07/08 05:53:39;;;;;;;1.88;0.90;;;;;;;19.80;64.43;101883.16;5025854;28;20051;-76
2023/07/08 05:56:06;;;;;;;2.97;1.33;;;;;;;19.91;64.43;101892.41;5025560;28;20120;-76
2023/07/08 05:58:33;;;;;;;1.65;0.70;;;;;;;19.95;64.13;101894.03;5027196;28;20042;-76
2023/07/08 06:01:00;;;;;;;2.30;0.75;;;;;;;20.05;63.90;101898.94;5028379;28;20457;-76
2023/07/08 06:03:28;;;;;;;1.67;0.63;;;;;;;20.02;63.70;101888.47;5027750;28;20051;-80
2023/07/08 06:05:55;;;;;;;4.90;1.00;;;;;;;20.14;63.17;101901.22;5025418;28;20544;-76
2023/07/08 06:08:22;;;;;;;2.47;1.10;;;;;;;20.18;62.91;101908.16;5021920;28;20072;-76
2023/07/08 06:10:51;;;;;;;4.82;1.02;;;;;;;20.23;62.30;101908.81;5022661;28;20145;-76
2023/07/08 06:13:18;;;;;;;1.10;0.90;;;;;;;20.26;62.47;101908.66;5028476;28;20136;-75
2023/07/08 06:15:45;;;;;;;4.18;1.02;;;;;;;20.28;62.32;101920.09;5025723;28;20945;-75
2023/07/08 06:18:12;;;;;;;3.25;1.00;;;;;;;20.33;61.93;101914.63;5027098;28;20037;-75
2023/07/08 06:20:39;;;;;;;2.35;0.98;;;;;;;20.35;62.07;101912.72;5024565;28;20042;-76
2023/07/08 06:23:06;;;;;;;3.42;0.88;;;;;;;20.35;61.90;101918.94;5026307;28;20041;-76
2023/07/08 06:25:33;;;;;;;3.58;1.30;;;;;;;20.36;61.93;101918.00;5026067;28;20444;-75
2023/07/08 06:28:02;;;;;;;3.72;1.63;;;;;;;20.34;61.30;101917.19;5025084;28;20045;-76
2023/07/08 06:30:28;;;;;;;1.42;1.30;;;;;;;20.35;61.57;101920.69;5028368;28;20053;-76
2023/07/08 06:32:55;;;;;;;3.45;1.10;;;;;;;20.37;61.35;101922.38;5026537;28;20768;-76
2023/07/08 06:35:22;;;;;;;3.47;1.08;;;;;;;20.37;61.44;101924.16;5027124;28;20133;-74
2023/07/08 06:37:49;;;;;;;1.40;1.10;;;;;;;20.37;61.10;101919.72;5029896;28;20128;-76
2023/07/08 06:40:17;;;;;;;3.83;1.00;;;;;;;20.38;61.03;101921.47;5023446;28;20045;-77
2023/07/08 06:42:44;;;;;;;1.15;1.00;;;;;;;20.40;61.18;101918.72;5024701;28;20496;-76
2023/07/08 06:45:13;;;;;;;3.25;1.10;;;;;;;20.41;61.37;101913.38;5024147;28;20063;-76
2023/07/08 06:47:39;;;;;;;1.88;0.90;;;;;;;20.40;60.90;101924.03;5024822;28;20124;-77
2023/07/08 06:50:08;;;;;;;2.83;1.10;;;;;;;20.41;61.37;101920.47;5023863;28;20049;-76
2023/07/08 06:52:36;;;;;;;2.63;1.00;;;;;;;20.41;60.99;101921.31;5027490;28;20052;-76
2023/07/08 06:55:05;;;;;;;1.42;1.00;;;;;;;20.44;61.05;101917.69;5029173;28;20048;-76
2023/07/08 06:57:32;;;;;;;3.60;1.13;;;;;;;20.46;60.91;101923.78;5021907;28;20133;-79
2023/07/08 06:59:59;;;;;;;2.55;1.15;;;;;;;20.49;61.37;101921.03;5027542;28;20050;-77
2023/07/08 07:02:28;;;;;;;2.72;0.95;;;;;;;20.52;60.39;101927.97;5020900;28;20131;-76
2023/07/08 07:04:56;;;;;;;1.35;1.02;;;;;;;20.56;60.64;101924.31;5023635;28;20425;-76
2023/07/08 07:07:23;;;;;;;3.95;1.17;;;;;;;20.57;60.94;101918.91;5021167;28;20517;-75
2023/07/08 07:09:50;;;;;;;1.45;1.17;;;;;;;20.62;60.48;101924.03;5026584;28;20049;-76
2023/07/08 07:12:17;;;;;;;1.63;1.05;;;;;;;20.66;60.89;101920.31;5027946;28;20045;-76
2023/07/08 07:14:44;;;;;;;3.65;1.60;;;;;;;20.69;60.51;101920.22;5027236;28;20041;-75
2023/07/08 07:17:10;;;;;;;5.88;1.10;;;;;;;20.75;60.49;101921.72;5026347;28;20049;-74
2023/07/08 07:19:39;;;;;;;2.20;0.90;;;;;;;20.83;60.03;101932.88;5027886;28;20046;-76
2023/07/08 07:22:06;;;;;;;2.67;1.05;;;;;;;20.92;60.12;101926.28;5028763;28;20523;-76
2023/07/08 07:24:33;;;;;;;1.50;0.80;;;;;;;20.97;59.25;101924.31;5029451;28;20052;-76
2023/07/08 07:27:00;;;;;;;2.53;1.13;;;;;;;21.05;59.01;101930.16;5028945;28;20050;-76
2023/07/08 07:29:27;;;;;;;2.80;1.30;;;;;;;21.14;59.79;101927.06;5027435;28;20045;-76
2023/07/08 07:31:54;;;;;;;2.97;1.20;;;;;;;21.27;59.11;101932.72;5028174;28;20095;-76
2023/07/08 07:34:21;;;;;;;1.55;0.88;;;;;;;21.38;59.26;101932.28;5025683;28;20049;-77
2023/07/08 07:36:50;;;;;;;1.55;1.33;;;;;;;21.45;58.29;101926.59;5028779;28;20164;-77
2023/07/08 07:39:16;;;;;;;2.08;1.02;;;;;;;21.56;58.41;101934.09;5027910;28;20085;-76
2023/07/08 07:41:43;;;;;;;4.55;0.90;;;;;;;21.64;58.36;101931.06;5018931;28;20068;-77
2023/07/08 07:44:10;;;;;;;2.15;1.00;;;;;;;21.68;58.09;101937.97;5026056;28;20045;-78
2023/07/08 07:46:37;;;;;;;2.50;1.13;;;;;;;21.71;58.35;101946.66;5027659;28;20493;-75
2023/07/08 07:49:04;;;;;;;1.70;0.80;;;;;;;21.57;57.79;101919.84;5025339;28;20048;-76
2023/07/08 07:51:31;;;;;;;0.80;0.73;;;;;;;21.73;57.43;101936.81;5028835;28;20059;-75
2023/07/08 07:53:59;;;;;;;1.85;1.00;;;;;;;21.77;57.80;101941.06;5026473;28;20413;-77
2023/07/08 07:56:26;;;;;;;1.58;0.90;;;;;;;21.83;57.88;101947.00;5027775;28;20056;-75
2023/07/08 07:58:53;;;;;;;4.00;1.10;;;;;;;21.85;58.07;101940.69;5019874;28;20048;-77
2023/07/08 08:01:21;;;;;;;1.15;0.90;;;;;;;21.90;58.30;101944.00;5027608;28;20054;-77
2023/07/08 08:03:50;;;;;;;2.03;1.20;;;;;;;21.94;57.58;101939.38;5028125;28;20100;-76
2023/07/08 08:06:17;;;;;;;2.75;1.00;;;;;;;21.98;57.22;101944.50;5027887;28;20063;-77
2023/07/08 08:08:45;;;;;;;1.88;1.17;;;;;;;22.00;57.27;101939.97;5024966;28;20038;-76
2023/07/08 08:11:13;;;;;;;3.55;0.93;;;;;;;22.02;57.11;101938.09;5027022;28;20041;-75
2023/07/08 08:13:40;;;;;;;5.75;1.30;;;;;;;22.08;56.79;101942.25;5026727;28;20071;-76
2023/07/08 08:16:07;;;;;;;1.33;0.90;;;;;;;22.14;55.73;101941.97;5026955;28;20048;-78
2023/07/08 08:18:34;;;;;;;2.28;1.00;;;;;;;22.17;56.15;101936.53;5028647;28;20056;-74
2023/07/08 08:21:01;;;;;;;1.90;0.93;;;;;;;22.20;56.30;101936.38;5026913;28;20417;-74
2023/07/08 08:23:28;;;;;;;1.50;0.90;;;;;;;22.26;56.29;101937.03;5027388;28;20051;-75
2023/07/08 08:25:55;;;;;;;1.15;0.85;;;;;;;22.14;56.35;101909.16;5016458;28;20053;-75
2023/07/08 08:28:24;;;;;;;1.80;0.70;;;;;;;22.34;55.71;101929.50;5023993;28;20052;-80
2023/07/08 08:30:51;;;;;;;3.28;0.95;;;;;;;22.39;55.65;101940.78;5025816;28;20057;-76
2023/07/08 08:33:19;;;;;;;2.65;0.90;;;;;;;22.44;55.67;101936.09;5024945;28;20046;-73
2023/07/08 08:35:47;;;;;;;1.55;1.05;;;;;;;22.44;55.42;101928.97;5025620;28;20056;-74
2023/07/08 08:38:14;;;;;;;1.90;0.93;;;;;;;22.55;54.72;101941.75;5021025;28;20068;-74
2023/07/08 08:40:42;;;;;;;1.55;0.88;;;;;;;22.58;55.15;101938.09;5020079;28;20050;-73
2023/07/08 08:43:14;;;;;;;2.83;1.20;;;;;;;22.64;54.71;101941.28;5023372;28;20045;-74
2023/07/08 08:45:51;;;;;;;2.45;1.00;;;;;;;22.68;54.11;101945.53;5025938;28;20044;-75
2023/07/08 08:48:21;;;;;;;2.03;1.05;;;;;;;22.72;53.58;101946.22;5022720;28;20057;-74
2023/07/08 08:50:53;;;;;;;2.50;1.17;;;;;;;22.74;54.14;101941.69;5025115;28;20056;-74
2023/07/08 08:53:22;;;;;;;1.48;0.70;;;;;;;22.81;53.87;101945.75;5026167;28;20041;-74
2023/07/08 08:55:57;;;;;;;1.30;1.00;;;;;;;22.86;53.35;101943.72;5025572;28;20045;-74
2023/07/08 08:58:37;;;;;;;;;;;;;;;22.94;54.30;101943.34;5022536;28;20049;-74
2023/07/08 09:01:09;;;;;;;5.32;1.13;;;;;;;22.97;53.47;101952.97;5022300;28;20288;-74
2023/07/08 09:03:46;;;;;;;3.28;0.80;;;;;;;23.00;53.93;101944.84;5020462;28;20103;-76
2023/07/08 09:06:15;;;;;;;3.03;0.82;;;;;;;23.04;53.03;101946.41;5025582;28;20051;-74
2023/07/08 09:08:43;;;;;;;3.97;1.00;;;;;;;22.93;52.30;101925.59;5022568;28;20053;-76
2023/07/08 09:11:26;;;;;;;3.67;1.05;;;;;;;23.13;53.23;101952.09;5025478;28;20445;-75
2023/07/08 09:13:54;;;;;;;1.48;0.90;;;;;;;23.17;52.28;101957.25;5024661;28;20049;-74
2023/07/08 09:16:31;;;;;;;1.65;0.80;;;;;;;23.16;52.35;101952.88;5022639;28;20037;-74
2023/07/08 09:19:01;;;;;;;1.38;1.27;;;;;;;23.24;52.85;101956.00;5024136;28;20108;-74
2023/07/08 09:21:35;;;;;;;1.80;0.95;;;;;;;23.26;53.00;101948.81;5022175;28;20289;-75
2023/07/08 09:24:09;;;;;;;1.60;0.80;;;;;;;23.30;51.94;101961.00;5024220;28;20121;-74
2023/07/08 09:26:37;;;;;;;4.38;2.45;;;;;;;23.31;52.82;101952.09;5020590;28;20486;-74
2023/07/08 09:29:09;;;;;;;1.23;1.13;;;;;;;23.39;51.90;101957.84;5025677;28;20486;-74
2023/07/08 09:31:41;;;;;;;2.03;1.08;;;;;;;23.42;51.20;101956.81;5025301;28;20072;-74
2023/07/08 09:34:12;;;;;;;2.72;1.02;;;;;;;23.44;51.79;101961.13;5021106;28;20130;-73
2023/07/08 09:36:41;;;;;;;1.52;1.42;;;;;;;23.44;51.41;101958.47;5020752;28;20056;-73
2023/07/08 09:39:12;;;;;;;2.72;1.17;;;;;;;23.47;51.55;101963.63;5020308;28;20088;-74
2023/07/08 09:41:40;;;;;;;3.08;1.00;;;;;;;23.51;51.32;101965.22;5020406;28;20037;-74
2023/07/08 09:44:19;;;;;;;2.20;1.45;;;;;;;23.54;51.88;101959.72;5021809;28;20046;-73
2023/07/08 09:46:47;;;;;;;2.10;1.00;;;;;;;23.58;50.78;101966.59;5021534;28;20045;-74
2023/07/08 09:49:19;;;;;;;2.28;1.33;;;;;;;23.53;50.80;101957.97;5018132;28;20060;-72
2023/07/08 09:51:46;;;;;;;2.17;1.63;;;;;;;23.53;50.75;101955.31;5017236;28;20544;-73
2023/07/08 09:54:13;;;;;;;3.45;1.35;;;;;;;23.62;50.49;101971.75;5026995;28;20046;-73
2023/07/08 09:56:44;;;;;;;2.30;1.20;;;;;;;23.62;50.67;101966.41;5023194;28;20198;-74
2023/07/08 09:59:14;;;;;;;2.15;0.90;;;;;;;23.63;50.71;101965.50;5024884;28;20061;-74
2023/07/08 10:01:44;;;;;;;3.15;0.85;;;;;;;23.64;50.25;101967.19;5021923;28;20061;-74
2023/07/08 10:04:13;;;;;;;2.10;1.10;;;;;;;23.60;49.25;101957.66;5025215;28;20470;-73
2023/07/08 10:06:40;;;;;;;1.58;1.25;;;;;;;23.63;49.54;101965.50;5020184;28;20599;-74
2023/07/08 10:09:18;;;;;;;3.72;1.65;;;;;;;23.65;49.30;101966.25;5021891;28;20041;-72
2023/07/08 10:11:50;;;;;;;4.38;1.10;;;;;;;23.66;49.23;101965.31;5019897;28;20053;-74
2023/07/08 10:14:25;;;;;;;1.80;1.20;;;;;;;23.67;49.14;101967.03;5021875;28;20037;-74
2023/07/08 10:16:52;;;;;;;1.30;0.93;;;;;;;23.64;49.02;101965.38;5021489;28;20509;-74
2023/07/08 10:19:22;;;;;;;1.35;1.02;;;;;;;23.66;50.13;101979.50;5024224;28;20576;-75
2023/07/08 10:21:56;;;;;;;1.45;0.82;;;;;;;23.67;49.71;101959.88;5022002;28;20053;-73
2023/07/08 10:24:47;;;;;;;4.80;0.97;;;;;;;23.66;49.19;101963.50;5023050;28;20050;-74
2023/07/08 10:27:26;;;;;;;3.22;1.00;;;;;;;23.64;48.69;101969.88;5019804;28;20220;-75
2023/07/08 10:30:01;;;;;;;1.20;1.08;;;;;;;23.62;49.00;101974.41;5019261;28;20052;-74
2023/07/08 10:32:38;;;;;;;1.88;1.25;;;;;;;23.60;48.76;101973.66;5025627;28;20053;-74
2023/07/08 10:35:18;;;;;;;3.03;0.80;;;;;;;23.51;48.55;101954.53;5025548;28;20049;-74
2023/07/08 10:38:01;;;;;;;1.10;1.00;;;;;;;23.55;49.25;101966.75;5024122;28;20049;-74
2023/07/08 10:40:40;;;;;;;3.00;0.90;;;;;;;23.54;49.01;101965.03;5022537;28;20270;-74
2023/07/08 10:43:24;;;;;;;1.17;0.90;;;;;;;23.55;48.91;101961.41;5026034;28;20398;-74
2023/07/08 10:45:57;;;;;;;4.43;1.42;;;;;;;23.54;48.62;101966.84;5025626;28;20041;-75
2023/07/08 10:48:53;;;;;;;2.65;1.08;;;;;;;23.56;47.73;101979.16;5024541;28;20053;-75
2023/07/08 10:51:26;;;;;;;;;;;;;;;23.55;48.74;101966.75;5028131;28;20049;-75
2023/07/08 10:54:08;;;;;;;4.55;1.10;;;;;;;23.52;47.62;101966.91;5029575;28;19957;-74
2023/07/08 10:56:41;;;;;;;2.17;1.50;;;;;;;23.51;46.93;101965.22;5027478;28;20049;-74
2023/07/08 10:59:51;;;;;;;1.70;0.90;;;;;;;23.50;46.87;101970.63;5025467;28;20041;-75
2023/07/08 11:02:43;;;;;;;2.28;1.70;;;;;;;23.48;47.03;101977.81;5028298;28;20579;-74
2023/07/08 11:05:27;;;;;;;1.92;1.17;;;;;;;23.48;46.73;101976.06;5024107;28;20080;-73
2023/07/08 11:08:01;;;;;;;1.10;0.75;;;;;;;23.45;45.62;101976.22;5027965;28;20069;-74
2023/07/08 11:10:35;;;;;;;1.52;1.00;;;;;;;23.38;45.40;101969.47;5021963;28;20468;-74
2023/07/08 11:13:07;;;;;;;2.42;0.88;;;;;;;23.32;44.75;101970.66;5024025;28;20077;-74
2023/07/08 11:15:46;;;;;;;2.83;1.10;;;;;;;23.31;44.87;101973.44;5026846;28;20042;-75
2023/07/08 11:18:19;;;;;;;2.55;1.10;;;;;;;23.25;44.88;101968.38;5027822;28;20054;-75
2023/07/08 11:20:53;;;;;;;1.13;0.70;;;;;;;23.27;45.33;101970.03;5025546;28;20513;-74
2023/07/08 11:23:27;;;;;;;0.90;0.75;;;;;;;23.25;44.60;101969.28;5025676;28;20099;-73
2023/07/08 11:26:06;;;;;;;2.35;1.20;;;;;;;23.23;44.92;101978.28;5028469;28;20170;-73
2023/07/08 11:28:33;;;;;;;1.25;1.10;;;;;;;23.20;44.86;101973.13;5024777;28;20051;-73
2023/07/08 11:31:02;;;;;;;1.17;0.90;;;;;;;23.20;45.53;101973.13;5025019;28;20161;-73
2023/07/08 11:33:31;;;;;;;1.60;0.93;;;;;;;23.20;45.24;101976.66;5028786;28;20058;-73
2023/07/08 11:36:00;;;;;;;1.38;1.27;;;;;;;23.14;45.43;101968.97;5028057;28;20045;-72